createdAt,value
2017-09-21T00:00:16.924Z,12.70
2017-09-21T00:02:44.448Z,12.60
2017-09-21T00:05:11.920Z,12.60
2017-09-21T00:07:39.400Z,12.50
2017-09-21T00:10:06.895Z,12.50
2017-09-21T00:12:35.140Z,12.40
2017-09-21T00:15:02.621Z,12.40
2017-09-21T00:17:30.891Z,12.40
2017-09-21T00:19:58.368Z,12.40
2017-09-21T00:22:26.631Z,12.30
2017-09-21T00:24:54.891Z,12.30
2017-09-21T00:27:22.364Z,12.20
2017-09-21T00:29:50.607Z,12.20
2017-09-21T00:32:18.103Z,12.20
2017-09-21T00:34:46.343Z,12.20
2017-09-21T00:37:13.824Z,12.10
2017-09-21T00:39:41.327Z,12.20
2017-09-21T00:42:08.803Z,12.20
2017-09-21T00:44:36.271Z,12.10
2017-09-21T00:47:03.768Z,12.10
2017-09-21T00:49:32.007Z,12.00
2017-09-21T00:51:59.487Z,12.00
2017-09-21T00:54:26.985Z,12.00
2017-09-21T00:56:54.464Z,12.00
2017-09-21T00:59:21.947Z,12.00
2017-09-21T01:01:49.444Z,12.00
2017-09-21T01:04:17.684Z,11.90
2017-09-21T01:06:45.159Z,11.90
2017-09-21T01:09:14.157Z,11.80
2017-09-21T01:11:41.631Z,11.80
2017-09-21T01:14:10.888Z,11.80
2017-09-21T01:16:38.385Z,11.70
2017-09-21T01:19:06.624Z,11.70
2017-09-21T01:21:34.099Z,11.70
2017-09-21T01:24:01.588Z,11.70
2017-09-21T01:26:29.820Z,11.70
2017-09-21T01:28:57.287Z,11.70
2017-09-21T01:31:24.907Z,11.70
2017-09-21T01:33:52.379Z,11.70
2017-09-21T01:36:19.860Z,11.70
2017-09-21T01:38:47.347Z,11.70
2017-09-21T01:41:15.579Z,11.70
2017-09-21T01:43:43.052Z,11.70
2017-09-21T01:46:10.547Z,11.70
2017-09-21T01:48:38.795Z,11.70
2017-09-21T01:51:06.271Z,11.70
2017-09-21T01:53:34.627Z,11.70
2017-09-21T01:56:02.103Z,11.60
2017-09-21T01:58:29.575Z,11.60
2017-09-21T02:00:57.832Z,11.50
2017-09-21T02:03:25.315Z,11.50
2017-09-21T02:05:53.567Z,11.50
2017-09-21T02:08:21.060Z,11.40
2017-09-21T02:10:48.539Z,11.40
2017-09-21T02:13:16.008Z,11.40
2017-09-21T02:15:43.510Z,11.40
2017-09-21T02:18:11.751Z,11.40
2017-09-21T02:20:39.220Z,11.30
2017-09-21T02:23:06.748Z,11.30
2017-09-21T02:25:34.223Z,11.30
2017-09-21T02:28:01.699Z,11.30
2017-09-21T02:30:29.206Z,11.30
2017-09-21T02:32:56.679Z,11.20
2017-09-21T02:35:24.155Z,11.20
2017-09-21T02:37:51.664Z,11.10
2017-09-21T02:40:19.904Z,11.10
2017-09-21T02:42:47.387Z,11.10
2017-09-21T02:45:15.664Z,11.00
2017-09-21T02:47:43.940Z,11.00
2017-09-21T02:50:12.176Z,11.00
2017-09-21T02:52:39.669Z,11.00
2017-09-21T02:55:07.908Z,11.00
2017-09-21T02:57:35.379Z,11.00
2017-09-21T03:00:02.876Z,10.90
2017-09-21T03:02:31.120Z,10.90
2017-09-21T03:04:58.608Z,10.90
2017-09-21T03:07:26.858Z,10.90
2017-09-21T03:09:54.327Z,10.90
2017-09-21T03:12:21.800Z,10.90
2017-09-21T03:14:50.075Z,10.80
2017-09-21T03:17:18.327Z,10.70
2017-09-21T03:19:45.796Z,10.70
2017-09-21T03:22:14.059Z,10.70
2017-09-21T03:24:41.547Z,10.70
2017-09-21T03:27:09.792Z,10.70
2017-09-21T03:29:37.281Z,10.70
2017-09-21T03:32:05.524Z,10.60
2017-09-21T03:34:33.103Z,10.60
2017-09-21T03:37:00.591Z,10.60
2017-09-21T03:39:28.101Z,10.60
2017-09-21T03:41:55.614Z,10.50
2017-09-21T03:44:23.118Z,10.50
2017-09-21T03:46:50.591Z,10.50
2017-09-21T03:49:18.060Z,10.50
2017-09-21T03:51:46.316Z,10.50
2017-09-21T03:54:13.808Z,10.40
2017-09-21T03:56:42.043Z,10.40
2017-09-21T03:59:09.537Z,10.40
2017-09-21T04:01:37.776Z,10.40
2017-09-21T04:04:05.272Z,10.30
2017-09-21T04:06:33.540Z,10.40
2017-09-21T04:09:01.775Z,10.40
2017-09-21T04:11:29.244Z,10.40
2017-09-21T04:13:56.737Z,10.40
2017-09-21T04:16:24.977Z,10.40
2017-09-21T04:18:52.451Z,10.40
2017-09-21T04:21:19.939Z,10.40
2017-09-21T04:23:48.173Z,10.40
2017-09-21T04:26:15.644Z,10.40
2017-09-21T04:28:43.904Z,10.40
2017-09-21T04:31:11.375Z,10.40
2017-09-21T04:33:38.848Z,10.30
2017-09-21T04:36:07.227Z,10.30
2017-09-21T04:38:35.499Z,10.20
2017-09-21T04:41:03.743Z,10.20
2017-09-21T04:43:31.234Z,10.20
2017-09-21T04:45:58.727Z,10.20
2017-09-21T04:48:26.207Z,10.10
2017-09-21T04:50:53.695Z,10.10
2017-09-21T04:53:21.179Z,10.10
2017-09-21T04:55:49.423Z,10.10
2017-09-21T04:58:16.928Z,10.00
2017-09-21T05:00:44.405Z,10.00
2017-09-21T05:03:11.920Z,10.00
2017-09-21T05:05:39.412Z,10.00
2017-09-21T05:08:06.906Z,10.00
2017-09-21T05:10:34.370Z,10.00
2017-09-21T05:13:01.891Z,9.90
2017-09-21T05:15:29.360Z,10.00
2017-09-21T05:17:56.832Z,9.90
2017-09-21T05:20:24.328Z,9.90
2017-09-21T05:22:52.571Z,9.90
2017-09-21T05:25:20.035Z,9.90
2017-09-21T05:27:47.516Z,9.90
2017-09-21T05:30:14.987Z,9.90
2017-09-21T05:32:43.223Z,9.90
2017-09-21T05:35:11.307Z,9.90
2017-09-21T05:37:38.778Z,9.90
2017-09-21T05:40:06.359Z,9.90
2017-09-21T05:42:34.627Z,9.90
2017-09-21T05:45:02.864Z,9.90
2017-09-21T05:47:30.336Z,9.90
2017-09-21T05:49:57.831Z,9.90
2017-09-21T05:52:26.067Z,9.80
2017-09-21T05:54:53.536Z,9.80
2017-09-21T05:57:21.055Z,9.80
2017-09-21T05:59:48.519Z,9.80
2017-09-21T06:02:16.000Z,9.80
2017-09-21T06:04:43.592Z,9.90
2017-09-21T06:07:11.836Z,9.90
2017-09-21T06:09:39.308Z,9.90
2017-09-21T06:12:06.808Z,9.90
2017-09-21T06:14:34.300Z,10.00
2017-09-21T06:17:01.783Z,9.90
2017-09-21T06:19:29.288Z,9.90
2017-09-21T06:21:56.755Z,9.90
2017-09-21T06:24:24.232Z,9.90
2017-09-21T06:26:51.731Z,9.90
2017-09-21T06:29:19.973Z,10.00
2017-09-21T06:31:47.439Z,9.90
2017-09-21T06:34:14.933Z,10.10
2017-09-21T06:36:43.176Z,10.10
2017-09-21T06:39:10.660Z,10.10
2017-09-21T06:41:38.936Z,10.20
2017-09-21T06:44:07.172Z,10.30
2017-09-21T06:46:34.659Z,10.30
2017-09-21T06:49:02.951Z,10.40
2017-09-21T06:51:31.200Z,10.50
2017-09-21T06:53:58.684Z,10.40
2017-09-21T06:56:26.968Z,10.50
2017-09-21T06:58:55.213Z,10.50
2017-09-21T07:01:22.727Z,10.50
2017-09-21T07:03:50.247Z,10.50
2017-09-21T07:06:18.487Z,10.60
2017-09-21T07:08:45.967Z,10.60
2017-09-21T07:11:13.474Z,10.70
2017-09-21T07:13:41.004Z,10.70
2017-09-21T07:16:09.243Z,10.90
2017-09-21T07:18:36.741Z,10.90
2017-09-21T07:21:04.982Z,10.90
2017-09-21T07:23:32.504Z,10.90
2017-09-21T07:26:00.028Z,11.00
2017-09-21T07:28:28.275Z,11.10
2017-09-21T07:30:55.752Z,11.10
2017-09-21T07:33:23.257Z,11.20
2017-09-21T07:35:50.817Z,11.30
2017-09-21T07:38:18.291Z,11.40
2017-09-21T07:40:45.787Z,11.50
2017-09-21T07:43:13.268Z,11.60
2017-09-21T07:45:41.509Z,11.70
2017-09-21T07:48:09.007Z,11.70
2017-09-21T07:50:36.490Z,11.80
2017-09-21T07:53:03.986Z,11.90
2017-09-21T07:55:31.507Z,12.00
2017-09-21T07:57:58.975Z,12.10
2017-09-21T08:00:26.448Z,12.20
2017-09-21T08:02:53.949Z,12.20
2017-09-21T08:05:22.187Z,12.30
2017-09-21T08:07:49.664Z,12.30
2017-09-21T08:10:17.170Z,12.40
2017-09-21T08:12:44.652Z,12.50
2017-09-21T08:15:12.132Z,12.60
2017-09-21T08:17:39.626Z,12.70
2017-09-21T08:20:07.104Z,12.80
2017-09-21T08:22:34.575Z,12.90
2017-09-21T08:25:02.088Z,13.00
2017-09-21T08:27:30.348Z,13.20
2017-09-21T08:29:57.823Z,13.20
2017-09-21T08:32:26.089Z,13.40
2017-09-21T08:34:54.376Z,13.40
2017-09-21T08:37:22.616Z,13.60
2017-09-21T08:39:50.116Z,13.60
2017-09-21T08:42:18.362Z,13.80
2017-09-21T08:44:45.836Z,13.80
2017-09-21T08:47:14.091Z,14.10
2017-09-21T08:49:41.564Z,14.20
2017-09-21T08:52:09.803Z,14.50
2017-09-21T08:54:37.299Z,14.50
2017-09-21T08:57:04.774Z,14.70
2017-09-21T08:59:33.007Z,15.00
2017-09-21T09:02:00.513Z,15.00
2017-09-21T09:04:28.756Z,15.10
2017-09-21T09:06:56.228Z,15.10
2017-09-21T09:09:24.487Z,15.30
2017-09-21T09:11:51.971Z,15.30
2017-09-21T09:14:20.215Z,15.40
2017-09-21T09:16:47.703Z,15.40
2017-09-21T09:19:15.951Z,15.50
2017-09-21T09:21:43.428Z,15.50
2017-09-21T09:24:10.924Z,15.60
2017-09-21T09:26:38.400Z,15.70
2017-09-21T09:29:05.872Z,15.70
2017-09-21T09:31:33.371Z,15.80
2017-09-21T09:34:01.646Z,15.90
2017-09-21T09:36:29.895Z,16.00
2017-09-21T09:38:57.398Z,16.00
2017-09-21T09:41:24.872Z,16.10
2017-09-21T09:43:52.356Z,16.20
2017-09-21T09:46:19.848Z,16.30
2017-09-21T09:48:48.100Z,16.50
2017-09-21T09:51:15.581Z,16.50
2017-09-21T09:53:43.839Z,16.60
2017-09-21T09:56:11.311Z,16.60
2017-09-21T09:58:38.791Z,16.70
2017-09-21T10:01:07.056Z,16.90
2017-09-21T10:03:35.299Z,17.00
2017-09-21T10:06:02.781Z,17.00
2017-09-21T10:08:31.804Z,17.10
2017-09-21T10:10:59.283Z,17.10
2017-09-21T10:13:26.759Z,17.30
2017-09-21T10:15:54.252Z,17.40
2017-09-21T10:18:21.724Z,17.40
2017-09-21T10:20:49.963Z,17.60
2017-09-21T10:23:17.462Z,17.50
2017-09-21T10:25:45.712Z,17.80
2017-09-21T10:28:14.695Z,17.80
2017-09-21T10:30:42.195Z,17.80
2017-09-21T10:33:10.435Z,17.90
2017-09-21T10:35:37.920Z,17.90
2017-09-21T10:38:05.476Z,18.10
2017-09-21T10:40:33.739Z,18.40
2017-09-21T10:43:01.213Z,18.40
2017-09-21T10:45:29.475Z,18.40
2017-09-21T10:47:57.724Z,18.50
2017-09-21T10:50:25.195Z,18.50
2017-09-21T10:52:52.690Z,18.60
2017-09-21T10:55:20.939Z,18.70
2017-09-21T10:57:48.411Z,18.60
2017-09-21T11:00:16.684Z,18.90
2017-09-21T11:02:50.000Z,18.80
2017-09-21T11:05:18.280Z,18.90
2017-09-21T11:07:45.753Z,18.80
2017-09-21T11:10:13.236Z,18.90
2017-09-21T11:12:40.781Z,19.10
2017-09-21T11:15:08.266Z,19.00
2017-09-21T11:17:35.762Z,19.10
2017-09-21T11:20:04.175Z,19.10
2017-09-21T11:22:31.655Z,19.10
2017-09-21T11:24:59.124Z,19.20
2017-09-21T11:27:26.716Z,19.20
2017-09-21T11:29:54.956Z,19.30
2017-09-21T11:32:22.443Z,19.20
2017-09-21T11:34:50.722Z,19.60
2017-09-21T11:37:18.998Z,19.80
2017-09-21T11:39:47.252Z,20.00
2017-09-21T11:42:14.767Z,20.00
2017-09-21T11:44:42.276Z,20.10
2017-09-21T11:47:09.752Z,20.20
2017-09-21T11:49:38.016Z,20.20
2017-09-21T11:52:05.584Z,20.20
2017-09-21T11:54:33.825Z,20.10
2017-09-21T11:57:01.324Z,20.00
2017-09-21T11:59:29.580Z,20.20
2017-09-21T12:01:57.053Z,20.20
2017-09-21T12:04:25.332Z,20.30
2017-09-21T12:06:53.569Z,20.50
2017-09-21T12:09:21.043Z,20.50
2017-09-21T12:11:48.539Z,20.60
2017-09-21T12:14:16.055Z,20.70
2017-09-21T12:16:43.562Z,20.80
2017-09-21T12:19:11.199Z,20.80
2017-09-21T12:21:39.447Z,21.00
2017-09-21T12:24:06.974Z,20.90
2017-09-21T12:26:34.496Z,21.10
2017-09-21T12:29:02.836Z,21.50
2017-09-21T12:31:30.320Z,21.50
2017-09-21T12:33:58.605Z,21.60
2017-09-21T12:36:26.071Z,21.60
2017-09-21T12:38:54.320Z,21.70
2017-09-21T12:41:21.841Z,21.60
2017-09-21T12:43:49.307Z,21.90
2017-09-21T12:46:16.825Z,21.90
2017-09-21T12:48:45.135Z,22.10
2017-09-21T12:51:12.608Z,22.00
2017-09-21T12:53:40.150Z,22.00
2017-09-21T12:56:07.672Z,22.20
2017-09-21T12:58:35.912Z,21.90
2017-09-21T13:01:03.445Z,21.90
2017-09-21T13:03:30.968Z,21.90
2017-09-21T13:05:59.225Z,22.20
2017-09-21T13:08:26.704Z,22.10
2017-09-21T13:10:54.964Z,22.30
2017-09-21T13:13:22.435Z,22.30
2017-09-21T14:02:43.674Z,23.10
2017-09-21T14:05:11.920Z,23.10
2017-09-21T14:07:39.404Z,23.10
2017-09-21T14:10:07.682Z,22.40
2017-09-21T14:12:35.997Z,22.10
2017-09-21T14:15:03.491Z,22.10
2017-09-21T14:17:31.021Z,21.90
2017-09-21T14:19:58.501Z,21.70
2017-09-21T14:22:26.013Z,21.60
2017-09-21T14:24:54.277Z,21.30
2017-09-21T14:27:22.520Z,21.30
2017-09-21T14:29:50.020Z,21.20
2017-09-21T14:32:18.321Z,21.20
2017-09-21T14:34:45.857Z,21.20
2017-09-21T14:37:14.110Z,21.10
2017-09-21T14:39:41.615Z,21.10
2017-09-21T14:42:09.158Z,21.10
2017-09-21T14:44:36.641Z,21.00
2017-09-21T14:47:04.157Z,21.00
2017-09-21T14:49:32.405Z,20.90
2017-09-21T14:51:59.890Z,20.90
2017-09-21T14:54:28.151Z,20.80
2017-09-21T14:56:55.623Z,20.80
2017-09-21T14:59:23.108Z,20.80
2017-09-21T15:01:50.611Z,20.70
2017-09-21T15:04:18.091Z,20.70
2017-09-21T15:06:46.349Z,20.70
2017-09-21T15:09:13.841Z,20.70
2017-09-21T15:11:42.080Z,20.70
2017-09-21T15:14:09.608Z,20.60
2017-09-21T15:16:37.121Z,20.60
2017-09-21T15:19:04.597Z,20.60
2017-09-21T15:21:32.839Z,20.60
2017-09-21T15:24:00.339Z,20.60
2017-09-21T15:26:27.848Z,20.50
2017-09-21T15:28:55.321Z,20.60
2017-09-21T15:31:23.581Z,20.50
2017-09-21T15:33:51.063Z,20.50
2017-09-21T15:36:19.307Z,20.50
2017-09-21T15:38:46.803Z,20.50
2017-09-21T15:41:14.277Z,20.50
2017-09-21T15:43:42.520Z,20.40
2017-09-21T15:46:10.015Z,20.40
2017-09-21T15:48:38.252Z,20.40
2017-09-21T15:51:05.723Z,20.40
2017-09-21T15:53:33.230Z,20.40
2017-09-21T15:56:00.793Z,20.20
2017-09-21T15:58:28.308Z,20.20
2017-09-21T16:00:57.328Z,20.10
2017-09-21T16:03:24.802Z,20.00
2017-09-21T16:05:52.290Z,20.00
2017-09-21T16:08:19.796Z,19.90
2017-09-21T16:10:48.072Z,19.70
2017-09-21T16:13:16.364Z,19.60
2017-09-21T16:15:43.868Z,19.60
2017-09-21T16:18:11.344Z,19.60
2017-09-21T16:20:39.616Z,19.60
2017-09-21T16:23:07.115Z,19.60
2017-09-21T16:25:34.596Z,19.50
2017-09-21T16:28:02.088Z,19.40
2017-09-21T16:30:29.595Z,19.30
2017-09-21T16:32:57.065Z,19.40
2017-09-21T16:35:24.553Z,19.30
2017-09-21T16:37:52.048Z,19.20
2017-09-21T16:40:20.299Z,19.10
2017-09-21T16:42:47.800Z,19.10
2017-09-21T16:45:15.299Z,19.00
2017-09-21T16:47:42.793Z,19.00
2017-09-21T16:50:10.324Z,18.90
2017-09-21T16:52:37.849Z,18.90
2017-09-21T16:55:05.340Z,18.80
2017-09-21T16:57:32.821Z,18.70
2017-09-21T17:00:00.319Z,18.70
2017-09-21T17:02:27.796Z,18.70
2017-09-21T17:04:55.286Z,18.60
2017-09-21T17:07:22.784Z,18.60
2017-09-21T17:09:50.253Z,18.50
2017-09-21T17:12:17.735Z,18.50
2017-09-21T17:14:45.232Z,18.40
2017-09-21T17:17:13.478Z,18.30
2017-09-21T17:19:42.493Z,18.30
2017-09-21T17:22:09.994Z,18.30
2017-09-21T17:24:37.492Z,18.20
2017-09-21T17:27:04.971Z,18.20
2017-09-21T17:29:32.554Z,18.10
2017-09-21T17:32:00.137Z,18.00
2017-09-21T17:34:27.603Z,18.00
2017-09-21T17:36:55.110Z,18.00
2017-09-21T17:39:22.583Z,18.00
2017-09-21T17:41:50.816Z,17.90
2017-09-21T17:44:18.308Z,17.90
2017-09-21T17:46:46.595Z,17.90
2017-09-21T17:49:15.108Z,17.80
2017-09-21T17:51:42.638Z,17.80
2017-09-21T17:54:10.876Z,17.70
2017-09-21T17:56:38.361Z,17.70
2017-09-21T17:59:06.687Z,17.60
2017-09-21T18:01:34.169Z,17.60
2017-09-21T18:04:01.653Z,17.60
2017-09-21T18:06:29.931Z,17.50
2017-09-21T18:08:57.536Z,17.50
2017-09-21T18:11:25.028Z,17.50
2017-09-21T18:13:52.528Z,17.50
2017-09-21T18:16:20.770Z,17.30
2017-09-21T18:18:48.296Z,17.30
2017-09-21T18:21:15.811Z,17.30
2017-09-21T18:23:44.055Z,17.20
2017-09-21T18:26:11.523Z,17.20
2017-09-21T18:28:40.521Z,17.10
2017-09-21T18:31:09.509Z,17.10
2017-09-21T18:33:38.491Z,17.00
2017-09-21T18:36:05.992Z,17.00
2017-09-21T18:38:34.236Z,17.00
2017-09-21T18:41:01.707Z,16.90
2017-09-21T18:43:30.745Z,16.90
2017-09-21T18:45:59.017Z,16.80
2017-09-21T18:48:26.508Z,16.80
2017-09-21T18:50:54.860Z,16.80
2017-09-21T18:53:22.336Z,16.70
2017-09-21T18:55:49.811Z,16.70
2017-09-21T18:58:17.426Z,16.60
2017-09-21T19:00:44.908Z,16.60
2017-09-21T19:03:12.377Z,16.60
2017-09-21T19:05:39.887Z,16.60
2017-09-21T19:08:08.140Z,16.50
2017-09-21T19:10:36.388Z,16.40
2017-09-21T19:13:03.900Z,16.40
2017-09-21T19:15:32.151Z,16.30
2017-09-21T19:18:00.482Z,16.30
2017-09-21T19:20:27.980Z,16.30
2017-09-21T19:22:55.458Z,16.20
2017-09-21T19:25:23.708Z,16.10
2017-09-21T19:27:51.211Z,16.10
2017-09-21T19:30:18.677Z,16.10
2017-09-21T19:32:46.152Z,16.10
2017-09-21T19:35:13.639Z,16.10
2017-09-21T19:37:41.116Z,16.00
2017-09-21T19:40:08.589Z,16.00
2017-09-21T19:42:36.852Z,15.90
2017-09-21T19:45:05.087Z,15.90
2017-09-21T19:47:33.114Z,15.90
2017-09-21T19:50:01.370Z,15.80
2017-09-21T19:52:30.352Z,15.80
2017-09-21T19:54:57.835Z,15.70
2017-09-21T19:57:26.100Z,15.70
2017-09-21T19:59:54.377Z,15.60
2017-09-21T20:02:22.701Z,15.60
2017-09-21T20:04:50.259Z,15.60
2017-09-21T20:07:17.756Z,15.50
2017-09-21T20:09:45.226Z,15.50
2017-09-21T20:12:12.701Z,15.50
2017-09-21T20:14:40.947Z,15.40
2017-09-21T20:17:08.424Z,15.40
2017-09-21T20:19:35.992Z,15.40
2017-09-21T20:22:04.243Z,15.30
2017-09-21T20:24:31.723Z,15.30
2017-09-21T20:26:59.979Z,15.30
2017-09-21T22:29:39.211Z,13.90
2017-09-21T22:32:06.685Z,13.90
2017-09-21T22:34:34.171Z,13.90
2017-09-21T22:37:01.663Z,13.90
2017-09-21T22:39:29.156Z,13.90
2017-09-21T22:41:56.652Z,13.90
2017-09-21T22:44:24.896Z,14.00
2017-09-21T22:46:52.371Z,13.90
2017-09-21T22:49:19.860Z,14.00
2017-09-21T22:51:48.095Z,14.00
2017-09-21T22:54:15.587Z,13.90
2017-09-21T22:56:43.840Z,14.00
2017-09-21T22:59:11.315Z,13.90
2017-09-21T23:01:39.568Z,13.90
2017-09-21T23:04:07.052Z,13.90
2017-09-21T23:06:35.319Z,13.90
2017-09-21T23:09:02.802Z,13.90
2017-09-21T23:11:31.055Z,13.90
2017-09-21T23:13:58.552Z,13.90
2017-09-21T23:16:26.035Z,13.90
2017-09-21T23:18:53.531Z,13.90
2017-09-21T23:21:21.780Z,13.80
2017-09-21T23:23:49.251Z,13.80
2017-09-21T23:26:16.752Z,13.80
2017-09-21T23:28:44.267Z,13.80
2017-09-21T23:31:11.739Z,13.80
2017-09-21T23:33:39.240Z,13.70
2017-09-21T23:36:06.724Z,13.70
2017-09-21T23:38:34.244Z,13.60
2017-09-21T23:41:01.777Z,13.60
2017-09-21T23:43:30.015Z,13.50
2017-09-21T23:45:57.495Z,13.50
2017-09-21T23:48:24.988Z,13.50
2017-09-21T23:50:53.329Z,13.40
2017-09-21T23:53:20.824Z,13.40
2017-09-21T23:55:49.084Z,13.30
2017-09-21T23:58:17.402Z,13.30
